sensor_id;sensor_type;location;lat;lon;timestamp;temperature;humidity
44863;DHT22;30597;49.628;10.850;2023-06-22T00:00:48;27.00;50.00
44863;DHT22;30597;49.628;10.850;2023-06-22T00:03:13;27.00;50.00
44863;DHT22;30597;49.628;10.850;2023-06-22T00:05:39;27.00;49.90
44863;DHT22;30597;49.628;10.850;2023-06-22T00:08:05;27.00;50.00
44863;DHT22;30597;49.628;10.850;2023-06-22T00:10:31;27.00;50.60
44863;DHT22;30597;49.628;10.850;2023-06-22T00:12:57;27.00;50.00
44863;DHT22;30597;49.628;10.850;2023-06-22T00:15:23;27.00;50.00
44863;DHT22;30597;49.628;10.850;2023-06-22T00:17:49;27.00;50.00
44863;DHT22;30597;49.628;10.850;2023-06-22T00:20:14;26.90;50.00
44863;DHT22;30597;49.628;10.850;2023-06-22T00:22:40;26.90;50.10
44863;DHT22;30597;49.628;10.850;2023-06-22T00:25:07;26.90;50.00
44863;DHT22;30597;49.628;10.850;2023-06-22T00:27:32;26.90;50.10
44863;DHT22;30597;49.628;10.850;2023-06-22T00:29:58;26.90;50.10
44863;DHT22;30597;49.628;10.850;2023-06-22T00:32:23;26.90;50.10
44863;DHT22;30597;49.628;10.850;2023-06-22T00:34:49;26.90;50.10
44863;DHT22;30597;49.628;10.850;2023-06-22T00:37:17;26.90;50.20
44863;DHT22;30597;49.628;10.850;2023-06-22T00:39:43;26.90;50.10
44863;DHT22;30597;49.628;10.850;2023-06-22T00:42:09;26.90;50.30
44863;DHT22;30597;49.628;10.850;2023-06-22T00:44:35;26.80;50.10
44863;DHT22;30597;49.628;10.850;2023-06-22T00:47:02;26.90;50.30
44863;DHT22;30597;49.628;10.850;2023-06-22T00:49:28;26.90;50.30
44863;DHT22;30597;49.628;10.850;2023-06-22T00:51:54;26.80;50.20
44863;DHT22;30597;49.628;10.850;2023-06-22T00:54:20;26.80;50.30
44863;DHT22;30597;49.628;10.850;2023-06-22T00:56:56;26.80;50.30
44863;DHT22;30597;49.628;10.850;2023-06-22T00:59:23;26.80;50.40
44863;DHT22;30597;49.628;10.850;2023-06-22T01:01:49;26.80;50.30
44863;DHT22;30597;49.628;10.850;2023-06-22T01:04:15;26.80;50.30
44863;DHT22;30597;49.628;10.850;2023-06-22T01:10:06;26.80;50.50
44863;DHT22;30597;49.628;10.850;2023-06-22T01:12:38;26.80;50.50
44863;DHT22;30597;49.628;10.850;2023-06-22T01:15:19;26.70;50.40
44863;DHT22;30597;49.628;10.850;2023-06-22T01:17:47;26.80;50.50
44863;DHT22;30597;49.628;10.850;2023-06-22T01:20:15;26.80;50.50
44863;DHT22;30597;49.628;10.850;2023-06-22T01:23:07;26.70;50.50
44863;DHT22;30597;49.628;10.850;2023-06-22T01:25:45;26.70;50.50
44863;DHT22;30597;49.628;10.850;2023-06-22T01:28:29;26.70;50.50
44863;DHT22;30597;49.628;10.850;2023-06-22T01:30:56;26.70;50.50
44863;DHT22;30597;49.628;10.850;2023-06-22T01:33:37;26.70;50.50
44863;DHT22;30597;49.628;10.850;2023-06-22T01:36:03;26.70;50.50
44863;DHT22;30597;49.628;10.850;2023-06-22T01:38:30;26.70;50.50
44863;DHT22;30597;49.628;10.850;2023-06-22T01:40:57;26.70;50.40
44863;DHT22;30597;49.628;10.850;2023-06-22T01:43:26;26.70;50.50
44863;DHT22;30597;49.628;10.850;2023-06-22T01:45:52;26.70;50.50
44863;DHT22;30597;49.628;10.850;2023-06-22T01:48:19;26.70;50.50
44863;DHT22;30597;49.628;10.850;2023-06-22T01:50:45;26.70;50.50
44863;DHT22;30597;49.628;10.850;2023-06-22T01:53:11;26.70;50.50
44863;DHT22;30597;49.628;10.850;2023-06-22T01:55:36;26.70;50.50
44863;DHT22;30597;49.628;10.850;2023-06-22T01:58:02;26.70;50.60
44863;DHT22;30597;49.628;10.850;2023-06-22T02:00:31;26.70;50.50
44863;DHT22;30597;49.628;10.850;2023-06-22T02:03:08;26.70;50.60
44863;DHT22;30597;49.628;10.850;2023-06-22T02:06:01;26.70;50.60
44863;DHT22;30597;49.628;10.850;2023-06-22T02:08:31;26.70;50.70
44863;DHT22;30597;49.628;10.850;2023-06-22T02:10:58;26.60;50.70
44863;DHT22;30597;49.628;10.850;2023-06-22T02:13:25;26.60;50.70
44863;DHT22;30597;49.628;10.850;2023-06-22T02:15:51;26.60;50.60
44863;DHT22;30597;49.628;10.850;2023-06-22T02:18:16;26.70;50.60
44863;DHT22;30597;49.628;10.850;2023-06-22T02:20:42;26.70;50.70
44863;DHT22;30597;49.628;10.850;2023-06-22T02:23:08;26.70;50.70
44863;DHT22;30597;49.628;10.850;2023-06-22T02:25:34;26.60;50.70
44863;DHT22;30597;49.628;10.850;2023-06-22T02:28:00;26.60;50.80
44863;DHT22;30597;49.628;10.850;2023-06-22T02:30:26;26.60;50.70
44863;DHT22;30597;49.628;10.850;2023-06-22T02:32:51;26.60;51.30
44863;DHT22;30597;49.628;10.850;2023-06-22T02:35:27;26.60;50.70
44863;DHT22;30597;49.628;10.850;2023-06-22T02:37:59;26.60;50.80
44863;DHT22;30597;49.628;10.850;2023-06-22T02:40:26;26.60;50.80
44863;DHT22;30597;49.628;10.850;2023-06-22T02:42:52;26.60;50.80
44863;DHT22;30597;49.628;10.850;2023-06-22T02:45:17;26.50;50.80
44863;DHT22;30597;49.628;10.850;2023-06-22T02:47:44;26.50;50.70
44863;DHT22;30597;49.628;10.850;2023-06-22T02:50:10;26.60;50.70
44863;DHT22;30597;49.628;10.850;2023-06-22T02:52:36;26.50;50.70
44863;DHT22;30597;49.628;10.850;2023-06-22T02:55:01;26.50;50.70
44863;DHT22;30597;49.628;10.850;2023-06-22T02:57:27;26.50;50.80
44863;DHT22;30597;49.628;10.850;2023-06-22T02:59:52;26.50;50.80
44863;DHT22;30597;49.628;10.850;2023-06-22T03:02:18;26.50;50.80
44863;DHT22;30597;49.628;10.850;2023-06-22T03:04:46;26.50;50.80
44863;DHT22;30597;49.628;10.850;2023-06-22T03:07:15;26.50;50.90
44863;DHT22;30597;49.628;10.850;2023-06-22T03:09:40;26.50;50.90
44863;DHT22;30597;49.628;10.850;2023-06-22T03:12:07;26.60;51.00
44863;DHT22;30597;49.628;10.850;2023-06-22T03:14:33;26.50;50.80
44863;DHT22;30597;49.628;10.850;2023-06-22T03:16:59;26.50;50.90
44863;DHT22;30597;49.628;10.850;2023-06-22T03:19:28;26.50;50.80
44863;DHT22;30597;49.628;10.850;2023-06-22T03:21:55;26.40;50.90
44863;DHT22;30597;49.628;10.850;2023-06-22T03:24:21;26.50;50.90
44863;DHT22;30597;49.628;10.850;2023-06-22T03:26:46;26.60;50.90
44863;DHT22;30597;49.628;10.850;2023-06-22T03:29:12;26.50;50.80
44863;DHT22;30597;49.628;10.850;2023-06-22T03:31:38;26.50;50.80
44863;DHT22;30597;49.628;10.850;2023-06-22T03:34:03;26.60;50.90
44863;DHT22;30597;49.628;10.850;2023-06-22T03:36:29;26.50;50.90
44863;DHT22;30597;49.628;10.850;2023-06-22T03:38:55;26.50;50.80
44863;DHT22;30597;49.628;10.850;2023-06-22T03:41:20;26.50;50.90
44863;DHT22;30597;49.628;10.850;2023-06-22T03:43:46;26.50;50.80
44863;DHT22;30597;49.628;10.850;2023-06-22T03:46:11;26.50;50.90
44863;DHT22;30597;49.628;10.850;2023-06-22T03:48:37;26.50;50.80
44863;DHT22;30597;49.628;10.850;2023-06-22T03:51:03;26.50;50.90
44863;DHT22;30597;49.628;10.850;2023-06-22T03:53:29;26.50;50.90
44863;DHT22;30597;49.628;10.850;2023-06-22T03:55:55;26.50;50.90
44863;DHT22;30597;49.628;10.850;2023-06-22T03:58:21;26.40;50.80
44863;DHT22;30597;49.628;10.850;2023-06-22T04:00:48;26.50;50.90
44863;DHT22;30597;49.628;10.850;2023-06-22T04:03:14;26.50;50.90
44863;DHT22;30597;49.628;10.850;2023-06-22T04:05:41;26.50;50.80
44863;DHT22;30597;49.628;10.850;2023-06-22T04:08:07;26.50;50.90
44863;DHT22;30597;49.628;10.850;2023-06-22T04:10:32;26.50;50.90
44863;DHT22;30597;49.628;10.850;2023-06-22T04:12:58;26.40;50.70
44863;DHT22;30597;49.628;10.850;2023-06-22T04:15:24;26.50;50.80
44863;DHT22;30597;49.628;10.850;2023-06-22T04:17:49;26.50;50.80
44863;DHT22;30597;49.628;10.850;2023-06-22T04:20:15;26.50;50.80
44863;DHT22;30597;49.628;10.850;2023-06-22T04:22:40;26.50;50.80
44863;DHT22;30597;49.628;10.850;2023-06-22T04:25:06;26.50;50.80
44863;DHT22;30597;49.628;10.850;2023-06-22T04:27:33;26.50;50.80
44863;DHT22;30597;49.628;10.850;2023-06-22T04:30:03;26.50;50.80
44863;DHT22;30597;49.628;10.850;2023-06-22T04:32:29;26.50;50.90
44863;DHT22;30597;49.628;10.850;2023-06-22T04:34:54;26.50;50.80
44863;DHT22;30597;49.628;10.850;2023-06-22T04:37:20;26.50;50.70
44863;DHT22;30597;49.628;10.850;2023-06-22T04:39:49;26.50;50.80
44863;DHT22;30597;49.628;10.850;2023-06-22T04:42:14;26.60;50.80
44863;DHT22;30597;49.628;10.850;2023-06-22T04:44:40;26.50;50.70
44863;DHT22;30597;49.628;10.850;2023-06-22T04:47:07;26.50;50.80
44863;DHT22;30597;49.628;10.850;2023-06-22T04:49:34;26.60;50.70
44863;DHT22;30597;49.628;10.850;2023-06-22T04:52:04;26.60;50.90
44863;DHT22;30597;49.628;10.850;2023-06-22T04:54:30;26.60;50.80
44863;DHT22;30597;49.628;10.850;2023-06-22T04:57:00;26.60;50.70
44863;DHT22;30597;49.628;10.850;2023-06-22T04:59:27;26.60;50.70
44863;DHT22;30597;49.628;10.850;2023-06-22T05:02:00;26.60;50.70
44863;DHT22;30597;49.628;10.850;2023-06-22T05:04:27;26.60;50.70
44863;DHT22;30597;49.628;10.850;2023-06-22T05:06:53;26.60;50.80
44863;DHT22;30597;49.628;10.850;2023-06-22T05:09:19;26.60;50.60
44863;DHT22;30597;49.628;10.850;2023-06-22T05:11:46;26.60;50.70
44863;DHT22;30597;49.628;10.850;2023-06-22T05:14:12;26.60;50.70
44863;DHT22;30597;49.628;10.850;2023-06-22T05:16:38;26.60;50.50
44863;DHT22;30597;49.628;10.850;2023-06-22T05:19:03;26.60;50.60
44863;DHT22;30597;49.628;10.850;2023-06-22T05:21:30;26.60;50.50
44863;DHT22;30597;49.628;10.850;2023-06-22T05:23:56;26.60;50.50
44863;DHT22;30597;49.628;10.850;2023-06-22T05:26:29;26.60;50.60
44863;DHT22;30597;49.628;10.850;2023-06-22T05:28:54;26.60;50.60
44863;DHT22;30597;49.628;10.850;2023-06-22T05:31:20;26.60;50.50
44863;DHT22;30597;49.628;10.850;2023-06-22T05:33:47;26.70;50.50
44863;DHT22;30597;49.628;10.850;2023-06-22T05:36:13;26.70;50.60
44863;DHT22;30597;49.628;10.850;2023-06-22T05:38:39;26.70;50.60
44863;DHT22;30597;49.628;10.850;2023-06-22T05:41:05;26.70;50.50
44863;DHT22;30597;49.628;10.850;2023-06-22T05:43:31;26.70;50.50
44863;DHT22;30597;49.628;10.850;2023-06-22T05:45:57;26.70;50.30
44863;DHT22;30597;49.628;10.850;2023-06-22T05:48:22;26.70;50.30
44863;DHT22;30597;49.628;10.850;2023-06-22T05:50:48;26.70;50.30
44863;DHT22;30597;49.628;10.850;2023-06-22T05:53:14;26.70;50.30
44863;DHT22;30597;49.628;10.850;2023-06-22T05:55:39;26.70;50.20
44863;DHT22;30597;49.628;10.850;2023-06-22T05:58:05;26.70;50.20
44863;DHT22;30597;49.628;10.850;2023-06-22T06:00:31;26.80;50.20
44863;DHT22;30597;49.628;10.850;2023-06-22T06:02:57;26.70;50.20
44863;DHT22;30597;49.628;10.850;2023-06-22T06:05:22;26.80;50.20
44863;DHT22;30597;49.628;10.850;2023-06-22T06:07:49;26.80;50.20
44863;DHT22;30597;49.628;10.850;2023-06-22T06:10:15;26.80;50.10
44863;DHT22;30597;49.628;10.850;2023-06-22T06:12:40;26.90;50.10
44863;DHT22;30597;49.628;10.850;2023-06-22T06:15:06;26.80;50.10
44863;DHT22;30597;49.628;10.850;2023-06-22T06:17:32;26.90;50.00
44863;DHT22;30597;49.628;10.850;2023-06-22T06:19:59;26.90;50.00
44863;DHT22;30597;49.628;10.850;2023-06-22T06:22:25;26.90;50.00
44863;DHT22;30597;49.628;10.850;2023-06-22T06:24:50;27.00;50.00
44863;DHT22;30597;49.628;10.850;2023-06-22T06:27:16;27.00;49.90
44863;DHT22;30597;49.628;10.850;2023-06-22T06:29:43;27.00;49.90
44863;DHT22;30597;49.628;10.850;2023-06-22T06:32:11;27.00;49.70
44863;DHT22;30597;49.628;10.850;2023-06-22T06:34:36;27.00;49.80
44863;DHT22;30597;49.628;10.850;2023-06-22T06:37:02;27.10;49.80
44863;DHT22;30597;49.628;10.850;2023-06-22T06:39:27;27.10;49.70
44863;DHT22;30597;49.628;10.850;2023-06-22T06:41:53;27.10;49.60
44863;DHT22;30597;49.628;10.850;2023-06-22T06:44:18;27.10;49.60
44863;DHT22;30597;49.628;10.850;2023-06-22T06:46:44;27.10;49.60
44863;DHT22;30597;49.628;10.850;2023-06-22T06:49:09;27.20;49.60
44863;DHT22;30597;49.628;10.850;2023-06-22T06:51:36;27.10;49.60
44863;DHT22;30597;49.628;10.850;2023-06-22T06:54:02;27.10;49.60
44863;DHT22;30597;49.628;10.850;2023-06-22T06:56:28;27.10;49.50
44863;DHT22;30597;49.628;10.850;2023-06-22T06:58:54;27.10;49.50
44863;DHT22;30597;49.628;10.850;2023-06-22T07:01:20;27.30;49.60
44863;DHT22;30597;49.628;10.850;2023-06-22T07:03:46;27.20;49.30
44863;DHT22;30597;49.628;10.850;2023-06-22T07:06:12;27.20;49.40
44863;DHT22;30597;49.628;10.850;2023-06-22T07:08:38;27.30;49.60
44863;DHT22;30597;49.628;10.850;2023-06-22T07:11:05;27.30;49.50
44863;DHT22;30597;49.628;10.850;2023-06-22T07:13:30;27.20;49.40
44863;DHT22;30597;49.628;10.850;2023-06-22T07:15:56;27.20;49.40
44863;DHT22;30597;49.628;10.850;2023-06-22T07:18:21;27.20;49.40
44863;DHT22;30597;49.628;10.850;2023-06-22T07:20:48;27.30;49.30
44863;DHT22;30597;49.628;10.850;2023-06-22T07:23:14;27.20;49.20
44863;DHT22;30597;49.628;10.850;2023-06-22T07:25:39;27.30;49.40
44863;DHT22;30597;49.628;10.850;2023-06-22T07:28:06;27.30;49.40
44863;DHT22;30597;49.628;10.850;2023-06-22T07:30:33;27.30;49.40
44863;DHT22;30597;49.628;10.850;2023-06-22T07:32:59;27.20;49.30
44863;DHT22;30597;49.628;10.850;2023-06-22T07:35:29;27.30;49.50
44863;DHT22;30597;49.628;10.850;2023-06-22T07:37:54;27.20;49.40
44863;DHT22;30597;49.628;10.850;2023-06-22T07:40:20;27.20;49.30
44863;DHT22;30597;49.628;10.850;2023-06-22T07:42:45;27.20;49.30
44863;DHT22;30597;49.628;10.850;2023-06-22T07:45:13;27.30;49.40
44863;DHT22;30597;49.628;10.850;2023-06-22T07:47:39;27.20;49.20
44863;DHT22;30597;49.628;10.850;2023-06-22T07:50:05;27.30;49.40
44863;DHT22;30597;49.628;10.850;2023-06-22T07:52:32;27.20;49.30
44863;DHT22;30597;49.628;10.850;2023-06-22T07:54:58;27.30;49.40
44863;DHT22;30597;49.628;10.850;2023-06-22T07:57:23;27.30;49.50
44863;DHT22;30597;49.628;10.850;2023-06-22T07:59:57;27.20;49.40
44863;DHT22;30597;49.628;10.850;2023-06-22T08:02:23;27.20;49.40
44863;DHT22;30597;49.628;10.850;2023-06-22T08:04:48;27.30;49.40
44863;DHT22;30597;49.628;10.850;2023-06-22T08:07:14;27.20;49.30
44863;DHT22;30597;49.628;10.850;2023-06-22T08:09:46;27.30;49.30
44863;DHT22;30597;49.628;10.850;2023-06-22T08:12:12;27.20;49.40
44863;DHT22;30597;49.628;10.850;2023-06-22T08:14:38;27.30;49.50
44863;DHT22;30597;49.628;10.850;2023-06-22T08:17:04;27.30;49.40
44863;DHT22;30597;49.628;10.850;2023-06-22T08:19:30;27.20;50.00
44863;DHT22;30597;49.628;10.850;2023-06-22T08:21:55;27.20;49.30
44863;DHT22;30597;49.628;10.850;2023-06-22T08:24:21;27.20;49.40
44863;DHT22;30597;49.628;10.850;2023-06-22T08:26:47;27.20;49.40
44863;DHT22;30597;49.628;10.850;2023-06-22T08:29:12;27.20;49.40
44863;DHT22;30597;49.628;10.850;2023-06-22T08:31:38;27.20;49.40
44863;DHT22;30597;49.628;10.850;2023-06-22T08:34:03;27.30;49.40
44863;DHT22;30597;49.628;10.850;2023-06-22T08:36:29;27.20;49.40
44863;DHT22;30597;49.628;10.850;2023-06-22T08:38:58;27.20;49.40
44863;DHT22;30597;49.628;10.850;2023-06-22T08:41:26;27.20;49.50
44863;DHT22;30597;49.628;10.850;2023-06-22T08:43:52;27.20;49.40
44863;DHT22;30597;49.628;10.850;2023-06-22T08:46:18;27.20;49.40
44863;DHT22;30597;49.628;10.850;2023-06-22T08:48:47;27.20;49.40
44863;DHT22;30597;49.628;10.850;2023-06-22T08:51:13;27.30;49.50
44863;DHT22;30597;49.628;10.850;2023-06-22T08:53:39;27.20;49.50
44863;DHT22;30597;49.628;10.850;2023-06-22T08:56:05;27.20;49.50
44863;DHT22;30597;49.628;10.850;2023-06-22T08:58:30;27.10;49.30
44863;DHT22;30597;49.628;10.850;2023-06-22T09:00:56;27.10;49.40
44863;DHT22;30597;49.628;10.850;2023-06-22T09:03:21;27.20;49.40
44863;DHT22;30597;49.628;10.850;2023-06-22T09:05:47;27.20;49.40
44863;DHT22;30597;49.628;10.850;2023-06-22T09:08:12;27.10;49.30
44863;DHT22;30597;49.628;10.850;2023-06-22T09:10:38;27.10;49.40
44863;DHT22;30597;49.628;10.850;2023-06-22T09:13:03;27.10;49.40
44863;DHT22;30597;49.628;10.850;2023-06-22T09:15:29;27.20;49.40
44863;DHT22;30597;49.628;10.850;2023-06-22T09:17:54;27.20;49.40
44863;DHT22;30597;49.628;10.850;2023-06-22T09:20:20;27.20;49.40
44863;DHT22;30597;49.628;10.850;2023-06-22T09:22:46;27.20;49.40
44863;DHT22;30597;49.628;10.850;2023-06-22T09:25:11;27.30;49.50
44863;DHT22;30597;49.628;10.850;2023-06-22T09:27:38;27.20;49.40
44863;DHT22;30597;49.628;10.850;2023-06-22T09:30:04;27.20;49.40
44863;DHT22;30597;49.628;10.850;2023-06-22T09:32:30;27.20;49.40
44863;DHT22;30597;49.628;10.850;2023-06-22T09:34:55;27.20;49.40
44863;DHT22;30597;49.628;10.850;2023-06-22T09:37:21;27.20;49.40
44863;DHT22;30597;49.628;10.850;2023-06-22T09:39:46;27.10;49.30
44863;DHT22;30597;49.628;10.850;2023-06-22T09:42:12;27.20;49.40
44863;DHT22;30597;49.628;10.850;2023-06-22T09:44:38;27.30;49.50
44863;DHT22;30597;49.628;10.850;2023-06-22T09:47:04;27.20;49.40
44863;DHT22;30597;49.628;10.850;2023-06-22T09:49:30;27.20;49.40
44863;DHT22;30597;49.628;10.850;2023-06-22T09:51:56;27.20;49.40
44863;DHT22;30597;49.628;10.850;2023-06-22T09:54:22;27.30;49.50
44863;DHT22;30597;49.628;10.850;2023-06-22T09:56:48;27.20;49.40
44863;DHT22;30597;49.628;10.850;2023-06-22T09:59:13;27.20;49.40
44863;DHT22;30597;49.628;10.850;2023-06-22T10:01:39;27.30;49.40
44863;DHT22;30597;49.628;10.850;2023-06-22T10:04:04;27.20;49.40
44863;DHT22;30597;49.628;10.850;2023-06-22T10:06:30;27.30;49.40
44863;DHT22;30597;49.628;10.850;2023-06-22T10:08:55;27.20;49.40
44863;DHT22;30597;49.628;10.850;2023-06-22T10:11:21;27.30;49.40
44863;DHT22;30597;49.628;10.850;2023-06-22T10:13:52;27.30;49.40
44863;DHT22;30597;49.628;10.850;2023-06-22T10:16:17;27.30;49.40
44863;DHT22;30597;49.628;10.850;2023-06-22T10:18:43;27.20;49.40
44863;DHT22;30597;49.628;10.850;2023-06-22T10:21:08;27.20;49.40
44863;DHT22;30597;49.628;10.850;2023-06-22T10:23:34;27.20;49.40
44863;DHT22;30597;49.628;10.850;2023-06-22T10:26:00;27.20;49.30
44863;DHT22;30597;49.628;10.850;2023-06-22T10:28:25;27.20;50.00
44863;DHT22;30597;49.628;10.850;2023-06-22T10:30:51;27.20;49.30
44863;DHT22;30597;49.628;10.850;2023-06-22T10:33:16;27.20;49.40
44863;DHT22;30597;49.628;10.850;2023-06-22T10:35:42;27.20;49.30
44863;DHT22;30597;49.628;10.850;2023-06-22T10:38:07;27.20;49.40
44863;DHT22;30597;49.628;10.850;2023-06-22T10:40:33;27.20;49.40
44863;DHT22;30597;49.628;10.850;2023-06-22T10:42:59;27.20;49.40
44863;DHT22;30597;49.628;10.850;2023-06-22T10:45:24;27.20;49.40
44863;DHT22;30597;49.628;10.850;2023-06-22T10:47:50;27.20;49.30
44863;DHT22;30597;49.628;10.850;2023-06-22T10:50:16;27.20;49.30
44863;DHT22;30597;49.628;10.850;2023-06-22T10:52:41;27.20;49.30
44863;DHT22;30597;49.628;10.850;2023-06-22T10:55:08;27.20;49.30
44863;DHT22;30597;49.628;10.850;2023-06-22T10:57:34;27.20;49.40
44863;DHT22;30597;49.628;10.850;2023-06-22T10:59:59;27.30;49.40
44863;DHT22;30597;49.628;10.850;2023-06-22T11:02:25;27.20;49.30
44863;DHT22;30597;49.628;10.850;2023-06-22T11:04:51;27.20;49.30
44863;DHT22;30597;49.628;10.850;2023-06-22T11:07:16;27.30;49.30
44863;DHT22;30597;49.628;10.850;2023-06-22T11:09:45;27.40;49.30
44863;DHT22;30597;49.628;10.850;2023-06-22T11:12:10;27.30;49.30
44863;DHT22;30597;49.628;10.850;2023-06-22T11:14:36;27.40;49.30
44863;DHT22;30597;49.628;10.850;2023-06-22T11:17:02;27.30;49.10
44863;DHT22;30597;49.628;10.850;2023-06-22T11:19:27;27.30;49.20
44863;DHT22;30597;49.628;10.850;2023-06-22T11:21:53;27.30;49.20
44863;DHT22;30597;49.628;10.850;2023-06-22T11:24:18;27.30;49.10
44863;DHT22;30597;49.628;10.850;2023-06-22T11:26:44;27.30;49.20
44863;DHT22;30597;49.628;10.850;2023-06-22T11:29:09;27.30;49.10
44863;DHT22;30597;49.628;10.850;2023-06-22T11:31:35;27.30;49.10
44863;DHT22;30597;49.628;10.850;2023-06-22T11:34:01;27.30;49.10
44863;DHT22;30597;49.628;10.850;2023-06-22T11:36:28;27.30;49.20
44863;DHT22;30597;49.628;10.850;2023-06-22T11:38:54;27.30;49.20
44863;DHT22;30597;49.628;10.850;2023-06-22T11:41:20;27.30;49.20
44863;DHT22;30597;49.628;10.850;2023-06-22T11:43:45;27.30;49.20
44863;DHT22;30597;49.628;10.850;2023-06-22T11:46:11;27.30;49.30
44863;DHT22;30597;49.628;10.850;2023-06-22T11:48:36;27.30;49.10
44863;DHT22;30597;49.628;10.850;2023-06-22T11:51:03;27.30;49.20
44863;DHT22;30597;49.628;10.850;2023-06-22T11:53:29;27.40;49.20
44863;DHT22;30597;49.628;10.850;2023-06-22T11:55:55;27.30;49.20
44863;DHT22;30597;49.628;10.850;2023-06-22T11:58:22;27.30;49.20
44863;DHT22;30597;49.628;10.850;2023-06-22T12:00:47;27.30;49.20
44863;DHT22;30597;49.628;10.850;2023-06-22T12:03:13;27.40;49.20
44863;DHT22;30597;49.628;10.850;2023-06-22T12:05:41;27.40;49.20
44863;DHT22;30597;49.628;10.850;2023-06-22T12:08:06;27.40;49.20
44863;DHT22;30597;49.628;10.850;2023-06-22T12:10:32;27.40;49.20
44863;DHT22;30597;49.628;10.850;2023-06-22T12:12:57;27.40;49.10
44863;DHT22;30597;49.628;10.850;2023-06-22T12:15:25;27.40;49.10
44863;DHT22;30597;49.628;10.850;2023-06-22T12:17:51;27.40;49.10
44863;DHT22;30597;49.628;10.850;2023-06-22T12:20:16;27.40;49.10
44863;DHT22;30597;49.628;10.850;2023-06-22T12:22:42;27.50;49.00
44863;DHT22;30597;49.628;10.850;2023-06-22T12:25:08;27.50;49.00
44863;DHT22;30597;49.628;10.850;2023-06-22T12:27:35;27.50;49.00
44863;DHT22;30597;49.628;10.850;2023-06-22T12:30:01;27.40;49.00
44863;DHT22;30597;49.628;10.850;2023-06-22T12:32:26;27.50;48.90
44863;DHT22;30597;49.628;10.850;2023-06-22T12:34:52;27.50;49.00
44863;DHT22;30597;49.628;10.850;2023-06-22T12:37:18;27.50;49.60
44863;DHT22;30597;49.628;10.850;2023-06-22T12:39:43;27.50;49.00
44863;DHT22;30597;49.628;10.850;2023-06-22T12:42:09;27.50;48.90
44863;DHT22;30597;49.628;10.850;2023-06-22T12:44:37;27.50;49.00
44863;DHT22;30597;49.628;10.850;2023-06-22T12:47:03;27.50;49.00
44863;DHT22;30597;49.628;10.850;2023-06-22T12:49:29;27.50;48.90
44863;DHT22;30597;49.628;10.850;2023-06-22T12:51:54;27.50;49.00
44863;DHT22;30597;49.628;10.850;2023-06-22T12:54:20;27.50;48.90
44863;DHT22;30597;49.628;10.850;2023-06-22T12:56:45;27.50;48.90
44863;DHT22;30597;49.628;10.850;2023-06-22T12:59:11;27.50;48.90
44863;DHT22;30597;49.628;10.850;2023-06-22T13:01:36;27.50;49.00
44863;DHT22;30597;49.628;10.850;2023-06-22T13:04:02;27.60;49.00
44863;DHT22;30597;49.628;10.850;2023-06-22T13:06:28;27.50;48.90
44863;DHT22;30597;49.628;10.850;2023-06-22T13:08:54;27.50;48.90
44863;DHT22;30597;49.628;10.850;2023-06-22T13:11:20;27.50;48.90
44863;DHT22;30597;49.628;10.850;2023-06-22T13:13:46;27.60;48.90
44863;DHT22;30597;49.628;10.850;2023-06-22T13:16:12;27.60;48.90
44863;DHT22;30597;49.628;10.850;2023-06-22T13:18:38;27.60;48.90
44863;DHT22;30597;49.628;10.850;2023-06-22T13:21:04;27.60;48.80
44863;DHT22;30597;49.628;10.850;2023-06-22T13:23:30;27.60;48.90
44863;DHT22;30597;49.628;10.850;2023-06-22T13:25:55;27.60;48.80
44863;DHT22;30597;49.628;10.850;2023-06-22T13:28:21;27.70;48.80
44863;DHT22;30597;49.628;10.850;2023-06-22T13:30:47;27.60;48.80
44863;DHT22;30597;49.628;10.850;2023-06-22T13:33:13;27.60;48.70
44863;DHT22;30597;49.628;10.850;2023-06-22T13:35:39;27.60;48.80
44863;DHT22;30597;49.628;10.850;2023-06-22T13:38:05;27.60;48.80
44863;DHT22;30597;49.628;10.850;2023-06-22T13:40:31;27.70;48.80
44863;DHT22;30597;49.628;10.850;2023-06-22T13:42:57;27.70;48.80
44863;DHT22;30597;49.628;10.850;2023-06-22T13:45:22;27.60;48.80
44863;DHT22;30597;49.628;10.850;2023-06-22T13:47:48;27.60;48.80
44863;DHT22;30597;49.628;10.850;2023-06-22T13:50:13;27.60;49.40
44863;DHT22;30597;49.628;10.850;2023-06-22T13:52:39;27.60;48.80
44863;DHT22;30597;49.628;10.850;2023-06-22T13:55:05;27.60;48.90
44863;DHT22;30597;49.628;10.850;2023-06-22T13:57:32;27.60;48.80
44863;DHT22;30597;49.628;10.850;2023-06-22T13:59:58;27.60;48.80
44863;DHT22;30597;49.628;10.850;2023-06-22T14:02:23;27.60;48.80
44863;DHT22;30597;49.628;10.850;2023-06-22T14:04:49;27.70;48.80
44863;DHT22;30597;49.628;10.850;2023-06-22T14:07:14;27.60;48.80
44863;DHT22;30597;49.628;10.850;2023-06-22T14:09:40;27.60;48.70
44863;DHT22;30597;49.628;10.850;2023-06-22T14:12:06;27.70;48.70
44863;DHT22;30597;49.628;10.850;2023-06-22T14:14:33;27.70;48.90
44863;DHT22;30597;49.628;10.850;2023-06-22T14:17:01;27.70;48.80
44863;DHT22;30597;49.628;10.850;2023-06-22T14:19:27;27.70;48.70
44863;DHT22;30597;49.628;10.850;2023-06-22T14:21:52;27.70;48.50
44863;DHT22;30597;49.628;10.850;2023-06-22T14:24:18;27.70;48.60
44863;DHT22;30597;49.628;10.850;2023-06-22T14:26:43;27.70;48.60
44863;DHT22;30597;49.628;10.850;2023-06-22T14:29:09;27.70;48.60
44863;DHT22;30597;49.628;10.850;2023-06-22T14:31:34;27.80;48.60
44863;DHT22;30597;49.628;10.850;2023-06-22T14:34:00;27.80;48.60
44863;DHT22;30597;49.628;10.850;2023-06-22T14:36:27;27.80;48.60
44863;DHT22;30597;49.628;10.850;2023-06-22T14:38:53;27.80;48.50
44863;DHT22;30597;49.628;10.850;2023-06-22T14:41:19;27.80;48.50
44863;DHT22;30597;49.628;10.850;2023-06-22T14:43:48;27.80;48.50
44863;DHT22;30597;49.628;10.850;2023-06-22T14:46:15;27.80;48.60
44863;DHT22;30597;49.628;10.850;2023-06-22T14:48:41;27.80;48.60
44863;DHT22;30597;49.628;10.850;2023-06-22T14:51:08;27.90;48.50
44863;DHT22;30597;49.628;10.850;2023-06-22T14:53:35;27.90;48.60
44863;DHT22;30597;49.628;10.850;2023-06-22T14:56:00;27.80;48.40
44863;DHT22;30597;49.628;10.850;2023-06-22T14:58:28;27.80;48.40
44863;DHT22;30597;49.628;10.850;2023-06-22T15:00:53;27.90;48.50
44863;DHT22;30597;49.628;10.850;2023-06-22T15:03:19;27.80;48.40
44863;DHT22;30597;49.628;10.850;2023-06-22T15:05:47;27.80;48.50
44863;DHT22;30597;49.628;10.850;2023-06-22T15:08:13;27.80;48.40
44863;DHT22;30597;49.628;10.850;2023-06-22T15:10:38;27.80;48.40
44863;DHT22;30597;49.628;10.850;2023-06-22T15:13:04;27.80;48.40